createdAt,value
2023-02-12T00:01:28.889Z,8.50
2023-02-12T00:03:57.678Z,8.50
2023-02-12T00:06:26.347Z,8.50
2023-02-12T00:08:56.358Z,8.50
2023-02-12T00:11:28.357Z,8.40
2023-02-12T00:13:57.736Z,8.40
2023-02-12T00:16:28.628Z,8.40
2023-02-12T00:18:58.502Z,8.40
2023-02-12T00:21:27.339Z,8.40
2023-02-12T00:23:55.628Z,8.40
2023-02-12T00:26:24.763Z,8.40
2023-02-12T00:28:54.811Z,8.40
2023-02-12T00:31:25.398Z,8.40
2023-02-12T00:33:54.225Z,8.40
2023-02-12T00:36:26.424Z,8.40
2023-02-12T00:38:56.428Z,8.40
2023-02-12T00:41:27.018Z,8.40
2023-02-12T00:43:57.800Z,8.40
2023-02-12T00:46:26.208Z,8.40
2023-02-12T00:48:54.568Z,8.40
2023-02-12T00:51:23.231Z,8.40
2023-02-12T00:53:51.546Z,8.40
2023-02-12T00:56:19.868Z,8.30
2023-02-12T00:58:50.651Z,8.30
2023-02-12T01:01:20.528Z,8.30
2023-02-12T01:03:49.238Z,8.30
2023-02-12T01:06:17.574Z,8.30
2023-02-12T01:08:51.892Z,8.30
2023-02-12T01:11:21.088Z,8.30
2023-02-12T01:13:50.407Z,8.30
2023-02-12T01:16:22.815Z,8.30
2023-02-12T01:18:55.483Z,8.30
2023-02-12T01:21:26.635Z,8.20
2023-02-12T01:23:56.395Z,8.30
2023-02-12T01:26:26.572Z,8.30
2023-02-12T01:28:56.541Z,8.20
2023-02-12T01:31:29.565Z,8.30
2023-02-12T01:34:00.142Z,8.30
2023-02-12T01:36:29.917Z,8.30
2023-02-12T01:38:59.262Z,8.30
2023-02-12T01:41:30.307Z,8.30
2023-02-12T01:44:16.995Z,8.30
2023-02-12T01:46:50.343Z,8.20
2023-02-12T01:49:23.264Z,8.30
2023-02-12T01:51:55.350Z,8.20
2023-02-12T01:54:25.828Z,8.20
2023-02-12T01:56:54.812Z,8.20
2023-02-12T01:59:24.274Z,8.20
2023-02-12T02:01:54.826Z,8.20
2023-02-12T02:04:26.939Z,8.20
2023-02-12T02:06:59.437Z,8.20
2023-02-12T02:09:29.615Z,8.20
2023-02-12T02:12:15.610Z,8.20
2023-02-12T02:14:45.564Z,8.20
2023-02-12T02:17:37.463Z,8.20
2023-02-12T02:20:54.747Z,8.20
2023-02-12T02:23:40.659Z,8.10
2023-02-12T02:26:43.474Z,8.20
2023-02-12T02:29:41.092Z,8.10
2023-02-12T02:32:16.858Z,8.10
2023-02-12T02:34:51.933Z,8.10
2023-02-12T02:37:25.185Z,8.10
2023-02-12T02:39:57.022Z,8.10
2023-02-12T02:42:32.173Z,8.10
2023-02-12T02:45:07.266Z,8.00
2023-02-12T02:47:42.530Z,8.00
2023-02-12T02:50:14.794Z,8.00
2023-02-12T02:52:50.320Z,8.10
2023-02-12T02:55:21.414Z,8.00
2023-02-12T02:57:53.843Z,7.90
2023-02-12T03:00:27.385Z,8.00
2023-02-12T03:03:00.787Z,8.00
2023-02-12T03:05:33.773Z,8.00
2023-02-12T03:08:08.882Z,8.10
2023-02-12T03:10:40.890Z,8.00
2023-02-12T03:13:12.817Z,8.00
2023-02-12T03:15:46.017Z,8.00
2023-02-12T03:18:21.623Z,8.10
2023-02-12T03:20:54.165Z,8.00
2023-02-12T03:23:27.766Z,8.00
2023-02-12T03:26:00.289Z,8.00
2023-02-12T03:28:31.716Z,8.10
2023-02-12T03:31:09.185Z,8.10
2023-02-12T03:33:47.872Z,8.00
2023-02-12T03:36:25.024Z,7.90
2023-02-12T03:38:56.465Z,7.90
2023-02-12T03:41:28.863Z,8.00
2023-02-12T03:44:06.861Z,8.00
2023-02-12T03:46:43.718Z,8.00
2023-02-12T03:49:22.359Z,8.00
2023-02-12T03:51:51.007Z,8.00
2023-02-12T03:54:22.206Z,8.00
2023-02-12T03:56:55.434Z,8.10
2023-02-12T03:59:24.875Z,8.00
2023-02-12T04:01:54.387Z,8.10
2023-02-12T04:04:25.798Z,8.10
2023-02-12T04:06:55.488Z,8.00
2023-02-12T04:09:25.666Z,8.10
2023-02-12T04:12:10.547Z,8.10
2023-02-12T04:14:45.695Z,8.10
2023-02-12T04:17:21.555Z,8.10
2023-02-12T04:20:04.093Z,8.00
2023-02-12T04:22:46.810Z,8.00
2023-02-12T04:25:23.067Z,8.00
2023-02-12T04:27:58.477Z,8.00
2023-02-12T04:30:32.877Z,8.00
2023-02-12T04:33:03.464Z,8.00
2023-02-12T04:35:35.896Z,8.00
2023-02-12T04:38:10.624Z,8.00
2023-02-12T04:40:41.429Z,8.00
2023-02-12T04:43:10.427Z,8.00
2023-02-12T04:45:39.236Z,8.00
2023-02-12T04:48:07.988Z,8.00
2023-02-12T04:50:42.375Z,8.00
2023-02-12T04:53:11.839Z,8.10
2023-02-12T04:55:40.145Z,8.00
2023-02-12T04:58:08.829Z,7.90
2023-02-12T05:00:37.158Z,7.80
2023-02-12T05:03:06.364Z,7.90
2023-02-12T05:05:34.672Z,7.90
2023-02-12T05:08:04.373Z,7.90
2023-02-12T05:10:32.691Z,7.90
2023-02-12T05:13:01.034Z,7.90
2023-02-12T05:15:29.435Z,8.00
2023-02-12T05:17:57.740Z,8.00
2023-02-12T05:20:26.057Z,8.00
2023-02-12T05:22:54.918Z,8.00
2023-02-12T05:25:24.667Z,8.00
2023-02-12T05:27:53.034Z,8.00
2023-02-12T05:30:21.455Z,8.00
2023-02-12T05:32:49.789Z,8.00
2023-02-12T05:35:18.172Z,8.00
2023-02-12T05:37:46.514Z,8.00
2023-02-12T05:40:15.747Z,8.00
2023-02-12T05:42:45.449Z,8.00
2023-02-12T05:45:13.804Z,8.00
2023-02-12T05:47:42.093Z,8.00
2023-02-12T05:50:11.203Z,8.10
2023-02-12T05:52:39.593Z,8.00
2023-02-12T05:55:09.110Z,8.00
2023-02-12T05:57:37.415Z,8.00
2023-02-12T06:00:09.846Z,8.00
2023-02-12T06:02:40.718Z,8.00
2023-02-12T06:05:09.367Z,8.00
2023-02-12T06:07:37.788Z,8.00
2023-02-12T06:10:07.019Z,8.00
2023-02-12T06:12:35.332Z,8.00
2023-02-12T06:15:03.729Z,8.00
2023-02-12T06:17:35.163Z,8.10
2023-02-12T06:20:03.551Z,8.10
2023-02-12T06:22:31.922Z,8.10
2023-02-12T06:25:00.265Z,8.10
2023-02-12T06:27:28.574Z,8.10
2023-02-12T06:29:56.975Z,8.10
2023-02-12T06:32:25.592Z,8.10
2023-02-12T06:34:55.486Z,8.10
2023-02-12T06:37:23.766Z,8.10
2023-02-12T06:39:52.045Z,8.10
2023-02-12T06:42:20.350Z,8.10
2023-02-12T06:44:50.736Z,8.10
2023-02-12T06:47:20.283Z,8.10
2023-02-12T06:49:48.569Z,8.10
2023-02-12T06:52:18.232Z,8.00
2023-02-12T06:54:46.548Z,8.00
2023-02-12T06:57:14.850Z,8.00
2023-02-12T06:59:43.152Z,8.00
2023-02-12T07:02:12.152Z,8.10
2023-02-12T07:04:40.506Z,8.10
2023-02-12T07:07:08.913Z,8.10
2023-02-12T07:09:38.622Z,8.10
2023-02-12T07:12:07.400Z,8.10
2023-02-12T07:14:35.820Z,8.00
2023-02-12T07:17:05.488Z,8.10
2023-02-12T07:19:33.835Z,8.10
2023-02-12T07:22:02.170Z,8.10
2023-02-12T07:24:30.631Z,8.10
2023-02-12T07:27:00.270Z,8.10
2023-02-12T07:29:28.665Z,8.10
2023-02-12T07:31:57.100Z,8.10
2023-02-12T07:34:25.491Z,8.10
2023-02-12T07:36:53.776Z,8.10
2023-02-12T07:39:22.289Z,8.10
2023-02-12T07:41:50.670Z,8.10
2023-02-12T07:44:21.353Z,8.10
2023-02-12T07:46:50.939Z,8.10
2023-02-12T07:49:21.530Z,8.10
2023-02-12T07:51:50.164Z,8.10
2023-02-12T07:54:18.833Z,8.10
2023-02-12T07:56:47.812Z,8.20
2023-02-12T07:59:18.269Z,8.20
2023-02-12T08:01:50.525Z,8.20
2023-02-12T08:04:20.782Z,8.20
2023-02-12T08:06:51.356Z,8.20
2023-02-12T08:09:21.421Z,8.20
2023-02-12T08:11:49.846Z,8.20
2023-02-12T08:14:20.447Z,8.20
2023-02-12T08:16:51.856Z,8.30
2023-02-12T08:19:24.916Z,8.20
2023-02-12T08:21:56.394Z,8.20
2023-02-12T08:24:24.912Z,8.20
2023-02-12T08:26:53.472Z,8.00
2023-02-12T08:29:24.184Z,8.10
2023-02-12T08:31:58.652Z,8.20
2023-02-12T08:34:28.859Z,8.30
2023-02-12T08:36:58.095Z,8.40
2023-02-12T08:39:29.426Z,8.50
2023-02-12T08:41:58.646Z,8.50
2023-02-12T08:44:27.259Z,8.60
2023-02-12T08:46:56.942Z,8.70
2023-02-12T08:49:27.154Z,8.70
2023-02-12T08:51:57.336Z,8.80
2023-02-12T08:54:27.740Z,8.90
2023-02-12T08:56:57.263Z,8.90
2023-02-12T08:59:25.827Z,8.80
2023-02-12T09:01:56.145Z,8.70
2023-02-12T09:04:26.315Z,8.80
2023-02-12T09:06:54.803Z,8.70
2023-02-12T09:09:23.396Z,8.70
2023-02-12T09:11:52.007Z,8.80
2023-02-12T09:14:24.075Z,8.90
2023-02-12T09:16:53.578Z,9.00
2023-02-12T09:19:23.693Z,9.00
2023-02-12T09:21:55.882Z,9.10
2023-02-12T09:24:24.908Z,9.20
2023-02-12T09:26:53.236Z,9.20
2023-02-12T09:29:21.553Z,9.20
2023-02-12T09:31:49.945Z,9.30
2023-02-12T09:34:18.418Z,9.30
2023-02-12T09:36:48.196Z,9.30
2023-02-12T09:39:16.495Z,9.40
2023-02-12T09:42:11.973Z,9.40
2023-02-12T09:44:47.386Z,9.50
2023-02-12T09:47:22.484Z,9.60
2023-02-12T09:50:11.957Z,9.70
2023-02-12T09:52:42.745Z,9.70
2023-02-12T09:55:15.745Z,9.80
2023-02-12T09:57:44.614Z,9.80
2023-02-12T10:00:17.602Z,9.70
2023-02-12T10:02:45.951Z,9.70
2023-02-12T10:05:18.677Z,9.70
2023-02-12T10:08:03.257Z,9.70
2023-02-12T10:10:43.956Z,9.70
2023-02-12T10:13:20.011Z,9.70
2023-02-12T10:15:58.371Z,10.00
2023-02-12T10:18:50.750Z,10.10
2023-02-12T10:21:32.336Z,10.10
2023-02-12T10:24:21.192Z,10.20
2023-02-12T10:26:51.401Z,10.40
2023-02-12T10:29:23.046Z,10.40
2023-02-12T10:34:35.448Z,10.40
2023-02-12T10:37:11.129Z,10.40
2023-02-12T10:39:44.772Z,10.50
2023-02-12T10:42:17.587Z,10.60
2023-02-12T10:44:46.036Z,10.20
2023-02-12T10:47:21.618Z,10.20
2023-02-12T10:49:56.966Z,10.20
2023-02-12T10:52:36.498Z,10.20
2023-02-12T10:55:28.109Z,10.30
2023-02-12T10:57:59.175Z,10.50
2023-02-12T11:00:32.174Z,10.60
2023-02-12T11:03:04.703Z,10.70
2023-02-12T11:05:36.060Z,10.80
2023-02-12T11:08:05.265Z,10.20
2023-02-12T11:10:39.300Z,10.00
2023-02-12T11:13:23.310Z,10.20
2023-02-12T11:15:52.340Z,10.00
2023-02-12T11:18:26.274Z,10.00
2023-02-12T11:20:58.391Z,10.10
2023-02-12T11:23:28.758Z,10.20
2023-02-12T11:26:01.775Z,10.20
2023-02-12T11:28:32.107Z,10.20
2023-02-12T11:31:02.579Z,10.40
2023-02-12T11:33:34.643Z,10.20
2023-02-12T11:36:07.341Z,10.30
2023-02-12T11:38:38.571Z,10.50
2023-02-12T11:41:28.353Z,10.70
2023-02-12T11:43:57.511Z,10.90
2023-02-12T11:46:28.117Z,10.50
2023-02-12T11:49:00.777Z,10.20
2023-02-12T11:51:31.370Z,10.10
2023-02-12T11:54:02.236Z,10.40
2023-02-12T11:56:44.557Z,10.60
2023-02-12T11:59:25.145Z,10.60
2023-02-12T12:01:55.840Z,10.50
2023-02-12T12:04:28.356Z,10.50
2023-02-12T12:07:02.150Z,10.60
2023-02-12T12:09:38.133Z,10.80
2023-02-12T12:12:14.069Z,10.80
2023-02-12T12:15:16.620Z,10.90
2023-02-12T12:18:14.046Z,11.00
2023-02-12T12:20:48.475Z,11.20
2023-02-12T12:23:21.530Z,11.30
2023-02-12T12:25:53.819Z,11.30
2023-02-12T12:28:31.683Z,11.10
2023-02-12T12:31:11.798Z,11.10
2023-02-12T12:33:45.275Z,11.20
2023-02-12T12:36:38.010Z,11.10
2023-02-12T12:39:18.815Z,10.90
2023-02-12T12:42:03.597Z,10.70
2023-02-12T12:44:51.014Z,10.70
2023-02-12T12:47:25.718Z,10.90
2023-02-12T12:50:09.500Z,10.80
2023-02-12T12:53:08.077Z,10.80
2023-02-12T12:55:55.422Z,10.70
2023-02-12T12:58:37.447Z,11.00
2023-02-12T13:01:28.940Z,11.00
2023-02-12T13:04:20.479Z,11.00
2023-02-12T13:06:58.508Z,11.30
2023-02-12T13:09:50.717Z,11.20
2023-02-12T13:12:46.531Z,11.20
2023-02-12T13:15:22.949Z,11.10
2023-02-12T13:18:01.818Z,11.10
2023-02-12T13:20:38.422Z,11.00
2023-02-12T13:23:15.674Z,11.20
2023-02-12T13:25:55.118Z,11.00
2023-02-12T13:28:32.061Z,11.20
2023-02-12T13:31:05.116Z,11.10
2023-02-12T13:33:44.288Z,11.10
2023-02-12T13:36:14.601Z,11.00
2023-02-12T13:38:49.134Z,10.80
2023-02-12T13:41:19.136Z,10.50
2023-02-12T13:44:01.688Z,10.50
2023-02-12T13:46:40.248Z,10.60
2023-02-12T13:49:19.999Z,10.60
2023-02-12T13:51:51.112Z,10.80
2023-02-12T13:54:37.794Z,10.60
2023-02-12T13:57:12.822Z,10.60
2023-02-12T13:59:43.347Z,10.80
2023-02-12T14:02:43.947Z,10.70
2023-02-12T14:05:22.167Z,10.60
2023-02-12T14:07:52.500Z,10.70
2023-02-12T14:10:24.019Z,10.80
2023-02-12T14:12:53.353Z,10.80
2023-02-12T14:15:35.258Z,10.80
2023-02-12T14:18:26.049Z,10.70
2023-02-12T14:21:45.755Z,10.70
2023-02-12T14:24:48.351Z,10.80
2023-02-12T14:27:24.769Z,10.70
2023-02-12T14:30:05.397Z,10.60
2023-02-12T14:33:18.396Z,10.60
2023-02-12T14:35:47.804Z,10.60
2023-02-12T14:39:02.278Z,10.80
2023-02-12T14:41:41.769Z,10.80
2023-02-12T14:44:48.142Z,10.50
2023-02-12T14:47:46.149Z,10.40
2023-02-12T14:50:19.727Z,10.40
2023-02-12T14:52:54.231Z,10.40
2023-02-12T14:55:27.111Z,10.40
2023-02-12T14:58:02.348Z,10.30
2023-02-12T15:00:35.877Z,10.30
2023-02-12T15:03:17.244Z,10.40
2023-02-12T15:05:52.424Z,10.50
2023-02-12T15:08:30.207Z,10.60
2023-02-12T15:11:05.449Z,10.70
2023-02-12T15:13:47.583Z,10.60
2023-02-12T15:16:23.828Z,10.40
2023-02-12T15:18:59.411Z,10.30
2023-02-12T15:21:30.312Z,10.20
2023-02-12T15:24:03.275Z,10.30
2023-02-12T15:26:34.853Z,10.40
2023-02-12T15:29:05.616Z,10.30
2023-02-12T15:31:36.121Z,10.20
2023-02-12T15:34:05.947Z,10.40
2023-02-12T15:36:38.065Z,10.40
2023-02-12T15:39:09.662Z,10.20
2023-02-12T15:41:40.589Z,10.30
2023-02-12T15:44:26.231Z,10.30
2023-02-12T15:47:12.328Z,10.20
2023-02-12T15:49:42.088Z,10.30
2023-02-12T15:52:16.870Z,10.30
2023-02-12T15:54:46.076Z,10.30
2023-02-12T15:57:20.530Z,10.30
2023-02-12T15:59:53.992Z,10.30
2023-02-12T16:02:27.386Z,10.30
2023-02-12T16:04:56.930Z,10.30
2023-02-12T16:07:26.956Z,10.10
2023-02-12T16:09:55.702Z,10.10
2023-02-12T16:12:28.669Z,10.00
2023-02-12T16:15:00.936Z,10.10
2023-02-12T16:17:32.084Z,10.10
2023-02-12T16:20:02.043Z,10.10
2023-02-12T16:22:34.099Z,10.20
2023-02-12T16:25:03.368Z,10.20
2023-02-12T16:27:33.379Z,10.20
2023-02-12T16:30:06.252Z,10.10
2023-02-12T16:32:38.062Z,10.10
2023-02-12T16:35:24.558Z,10.00
2023-02-12T16:37:56.431Z,9.90
2023-02-12T16:40:30.962Z,9.80
2023-02-12T16:43:01.988Z,9.80
2023-02-12T16:45:44.838Z,9.70
2023-02-12T16:48:25.227Z,9.80
2023-02-12T16:50:56.740Z,9.70
2023-02-12T16:53:33.561Z,9.80
2023-02-12T16:56:03.411Z,9.70
2023-02-12T16:58:32.175Z,9.70
2023-02-12T17:01:05.064Z,9.70
2023-02-12T17:03:33.632Z,9.70
2023-02-12T17:06:01.938Z,9.70
2023-02-12T17:08:30.369Z,9.70
2023-02-12T17:10:58.658Z,9.80
2023-02-12T17:13:27.027Z,9.60
2023-02-12T17:15:57.216Z,9.60
2023-02-12T17:18:32.740Z,9.60
2023-02-12T17:21:04.523Z,9.70
2023-02-12T17:23:33.240Z,9.70
2023-02-12T17:26:01.587Z,9.70
2023-02-12T17:28:29.973Z,9.70
2023-02-12T17:31:06.157Z,9.70
2023-02-12T17:33:35.915Z,9.70
2023-02-12T17:36:04.812Z,9.70
2023-02-12T17:38:33.278Z,9.70
2023-02-12T17:41:01.601Z,9.80
2023-02-12T17:43:29.886Z,9.70
2023-02-12T17:45:59.633Z,9.70
2023-02-12T17:48:27.980Z,9.80
2023-02-12T17:50:58.213Z,9.70
2023-02-12T17:53:26.916Z,9.70
2023-02-12T17:55:55.231Z,9.70
2023-02-12T17:58:23.645Z,9.70
2023-02-12T18:00:51.976Z,9.60
2023-02-12T18:03:20.332Z,9.60
2023-02-12T18:05:48.622Z,9.60
2023-02-12T18:08:18.392Z,9.60
2023-02-12T18:10:46.949Z,9.60
2023-02-12T18:13:15.281Z,9.50
2023-02-12T18:15:43.797Z,9.50
2023-02-12T18:18:12.483Z,9.40
2023-02-12T18:20:41.868Z,9.40
2023-02-12T18:23:10.384Z,9.40
2023-02-12T18:25:43.239Z,9.30
2023-02-12T18:28:12.841Z,9.20
2023-02-12T18:30:43.211Z,9.20
2023-02-12T18:33:13.198Z,9.20
2023-02-12T18:35:42.330Z,9.10
2023-02-12T18:38:10.668Z,9.10
2023-02-12T18:40:42.599Z,9.10
2023-02-12T18:43:10.933Z,9.00
2023-02-12T18:45:40.463Z,9.00
2023-02-12T18:48:09.358Z,8.90
2023-02-12T18:50:38.257Z,8.80
2023-02-12T18:53:06.684Z,8.80
2023-02-12T18:55:35.023Z,8.60
2023-02-12T18:58:04.725Z,8.50
2023-02-12T19:00:33.093Z,8.40
2023-02-12T19:03:01.413Z,8.30
2023-02-12T19:05:29.688Z,8.20
2023-02-12T19:07:57.993Z,8.10
2023-02-12T19:10:26.347Z,7.90
2023-02-12T19:12:54.667Z,7.70
2023-02-12T19:15:24.565Z,7.50
2023-02-12T19:17:52.960Z,7.40
2023-02-12T19:20:21.469Z,7.30
2023-02-12T19:22:49.832Z,7.10
2023-02-12T19:25:18.309Z,7.00
2023-02-12T19:27:46.611Z,6.90
2023-02-12T19:30:15.467Z,6.70
2023-02-12T19:32:45.204Z,6.60
2023-02-12T19:35:13.547Z,6.50
2023-02-12T19:37:41.891Z,6.50
2023-02-12T19:40:11.172Z,6.40
2023-02-12T19:42:39.437Z,6.30
2023-02-12T19:45:08.443Z,6.10
2023-02-12T19:47:36.799Z,6.10
2023-02-12T19:50:07.491Z,6.00
2023-02-12T19:52:36.009Z,6.00
2023-02-12T19:55:04.736Z,5.90
2023-02-12T19:57:33.328Z,5.80
2023-02-12T20:00:01.618Z,5.70
2023-02-12T20:02:34.523Z,5.70
2023-02-12T20:05:02.978Z,5.60
2023-02-12T20:07:32.752Z,5.50
2023-02-12T20:10:01.138Z,5.40
2023-02-12T20:12:29.458Z,5.30
2023-02-12T20:15:00.940Z,5.30
2023-02-12T20:17:29.326Z,5.20
2023-02-12T20:19:57.630Z,5.20
2023-02-12T20:22:26.037Z,5.10
2023-02-12T20:24:55.866Z,5.00
2023-02-12T20:27:24.174Z,5.00
2023-02-12T20:29:52.489Z,5.00
2023-02-12T20:32:20.900Z,4.90
2023-02-12T20:34:52.048Z,4.80
2023-02-12T20:37:20.431Z,4.70
2023-02-12T20:39:48.988Z,4.70
2023-02-12T20:42:18.695Z,4.60
2023-02-12T20:44:46.970Z,4.60
2023-02-12T20:47:15.298Z,4.40
2023-02-12T20:49:43.648Z,4.40
2023-02-12T20:52:12.165Z,4.30
2023-02-12T20:54:40.494Z,4.30
2023-02-12T20:57:08.909Z,4.30
2023-02-12T20:59:38.868Z,4.20
2023-02-12T21:02:07.952Z,4.10
2023-02-12T21:04:36.356Z,4.10
2023-02-12T21:07:04.882Z,4.10
2023-02-12T21:09:33.250Z,4.00
2023-02-12T21:12:01.604Z,3.90
2023-02-12T21:14:29.934Z,3.90
2023-02-12T21:16:59.686Z,3.90
2023-02-12T21:19:29.409Z,3.90
2023-02-12T21:21:57.721Z,3.80
2023-02-12T21:24:27.353Z,3.80
2023-02-12T21:26:56.602Z,3.70
2023-02-12T21:29:26.573Z,3.70
2023-02-12T21:31:55.390Z,3.60
2023-02-12T21:34:25.332Z,3.60
2023-02-12T21:36:55.649Z,3.50
2023-02-12T21:39:27.160Z,3.50
2023-02-12T21:41:57.101Z,3.50
2023-02-12T21:44:26.652Z,3.40
2023-02-12T21:46:55.164Z,3.30
2023-02-12T21:49:28.022Z,3.30
2023-02-12T21:51:59.518Z,3.20
2023-02-12T21:54:29.015Z,3.20
2023-02-12T21:56:57.738Z,3.20
2023-02-12T21:59:26.592Z,3.00
2023-02-12T22:01:58.411Z,3.00
2023-02-12T22:04:28.809Z,3.00
2023-02-12T22:06:58.256Z,3.00
2023-02-12T22:09:26.631Z,2.90
2023-02-12T22:11:55.001Z,2.90
2023-02-12T22:14:23.934Z,2.90
2023-02-12T22:16:52.284Z,2.90
2023-02-12T22:19:20.908Z,2.80
2023-02-12T22:21:52.492Z,2.70
2023-02-12T22:24:22.066Z,2.70
2023-02-12T22:26:50.429Z,2.70
2023-02-12T22:29:18.748Z,2.60
2023-02-12T22:31:48.233Z,2.50
2023-02-12T22:34:18.677Z,2.50
2023-02-12T22:36:47.913Z,2.50
2023-02-12T22:39:18.567Z,2.40
2023-02-12T22:41:47.139Z,2.40
2023-02-12T22:44:16.610Z,2.40
2023-02-12T22:46:45.790Z,2.30
2023-02-12T22:49:14.418Z,2.30
2023-02-12T22:51:42.995Z,2.20
2023-02-12T22:54:15.159Z,2.30
2023-02-12T22:56:45.934Z,2.20
2023-02-12T22:59:14.486Z,2.20
2023-02-12T23:01:43.557Z,2.20
2023-02-12T23:04:15.609Z,2.20
2023-02-12T23:06:44.983Z,2.20
2023-02-12T23:09:15.602Z,2.20
2023-02-12T23:11:45.887Z,2.20
2023-02-12T23:14:14.211Z,2.20
2023-02-12T23:16:42.529Z,2.30
2023-02-12T23:19:11.319Z,2.30
2023-02-12T23:21:39.830Z,2.30
2023-02-12T23:24:08.530Z,2.40
2023-02-12T23:26:36.975Z,2.40
2023-02-12T23:29:06.713Z,2.40
2023-02-12T23:31:35.122Z,2.40
2023-02-12T23:34:03.681Z,2.50
2023-02-12T23:36:31.945Z,2.50
2023-02-12T23:39:00.371Z,2.60
2023-02-12T23:41:28.658Z,2.60
2023-02-12T23:43:56.989Z,2.60
2023-02-12T23:46:26.670Z,2.60
2023-02-12T23:48:55.089Z,2.60
2023-02-12T23:51:23.502Z,2.60
2023-02-12T23:53:51.804Z,2.70
2023-02-12T23:56:20.127Z,2.70
2023-02-12T23:58:48.430Z,2.70
